Time;durP1;ratioP1;P1;durP2;ratioP2;P2;SDS_P1;SDS_P2;PMS_P1;PMS_P2;Temp;Humidity;BMP_temperature;BMP_pressure;BME280_temperature;BME280_humidity;BME280_pressure;Samples;Min_cycle;Max_cycle;Signal;HPM_P1;HPM_P2
2023/05/26 00:00:21;;;;;;;0.10;0.10;;;12.90;99.90;;;;;;5114419;28;20027;-70
2023/05/26 00:02:47;;;;;;;0.20;0.20;;;12.70;99.90;;;;;;5114105;28;20023;-70
2023/05/26 00:05:13;;;;;;;9.32;2.28;;;12.80;99.90;;;;;;5114211;28;20031;-70
2023/05/26 00:07:40;;;;;;;0.20;0.20;;;12.60;99.90;;;;;;5114181;28;20541;-70
2023/05/26 00:10:10;;;;;;;0.10;0.10;;;12.60;99.90;;;;;;5114125;28;20043;-70
2023/05/26 00:12:37;;;;;;;2.53;0.85;;;12.50;99.90;;;;;;5113593;28;20077;-70
2023/05/26 00:15:03;;;;;;;0.20;0.20;;;12.60;99.90;;;;;;5113868;28;20030;-70
2023/05/26 00:17:29;;;;;;;0.10;0.10;;;12.50;99.90;;;;;;5114022;28;20059;-70
2023/05/26 00:19:55;;;;;;;0.28;0.28;;;12.60;99.90;;;;;;5113822;28;20463;-70
2023/05/26 00:22:21;;;;;;;1.55;1.45;;;12.60;99.90;;;;;;5113422;28;20098;-69
2023/05/26 00:24:47;;;;;;;0.10;0.10;;;12.60;99.90;;;;;;5113224;28;20031;-69
2023/05/26 00:27:13;;;;;;;0.10;0.10;;;12.60;99.90;;;;;;5113444;28;20037;-69
2023/05/26 00:29:41;;;;;;;0.10;0.10;;;12.50;99.90;;;;;;5093777;28;20111;-72
2023/05/26 00:32:06;;;;;;;1.17;0.73;;;12.50;99.90;;;;;;5098766;28;20024;-74
2023/05/26 00:34:33;;;;;;;0.98;0.52;;;12.40;99.90;;;;;;5123954;27;20046;-72
2023/05/26 00:37:00;;;;;;;2.17;0.40;;;12.40;99.90;;;;;;5124769;27;20099;-69
2023/05/26 00:39:30;;;;;;;0.10;0.10;;;12.40;99.90;;;;;;5093894;27;20034;-72
2023/05/26 00:41:56;;;;;;;0.85;0.68;;;12.30;99.90;;;;;;5115643;27;20075;-70
2023/05/26 00:44:22;;;;;;;0.35;0.35;;;12.10;99.90;;;;;;5134164;27;20035;-73
2023/05/26 00:46:48;;;;;;;0.10;0.10;;;12.10;99.90;;;;;;5101212;27;20428;-73
2023/05/26 00:49:14;;;;;;;3.08;1.85;;;12.20;99.90;;;;;;5115692;27;20023;-69
2023/05/26 00:51:43;;;;;;;0.73;0.73;;;12.20;99.90;;;;;;5115588;27;20479;-69
2023/05/26 00:54:09;;;;;;;2.17;0.77;;;12.10;99.90;;;;;;5133370;27;20055;-70
2023/05/26 00:56:35;;;;;;;4.03;0.40;;;12.10;99.90;;;;;;5115431;28;20410;-70
2023/05/26 00:59:03;;;;;;;0.10;0.10;;;12.10;99.90;;;;;;5115586;28;20011;-69
2023/05/26 01:01:30;;;;;;;0.10;0.10;;;12.10;99.90;;;;;;5133725;27;20024;-69
2023/05/26 01:03:56;;;;;;;0.10;0.10;;;12.00;99.90;;;;;;5105464;28;20378;-69
2023/05/26 01:06:22;;;;;;;0.32;0.32;;;12.10;99.90;;;;;;5133686;28;20045;-69
2023/05/26 01:08:48;;;;;;;0.30;0.30;;;11.80;99.90;;;;;;5133517;28;20031;-69
2023/05/26 01:11:21;;;;;;;5.57;1.55;;;11.80;99.90;;;;;;5133559;28;20080;-69
2023/05/26 01:14:03;;;;;;;0.55;0.30;;;11.80;99.90;;;;;;5115109;28;20038;-69
2023/05/26 01:16:42;;;;;;;0.90;0.90;;;11.90;99.90;;;;;;5133585;28;20099;-69
2023/05/26 01:19:30;;;;;;;1.23;0.45;;;11.80;99.90;;;;;;5133512;28;20027;-69
2023/05/26 01:22:14;;;;;;;0.25;0.25;;;11.90;99.90;;;;;;5115211;28;20104;-70
2023/05/26 01:24:54;;;;;;;0.45;0.45;;;11.80;99.90;;;;;;5133304;28;20072;-69
2023/05/26 01:27:46;;;;;;;0.10;0.10;;;11.80;99.90;;;;;;5133419;28;20047;-69
2023/05/26 01:30:14;;;;;;;0.52;0.52;;;11.70;99.90;;;;;;5133478;28;20050;-69
2023/05/26 01:32:49;;;;;;;0.25;0.25;;;11.80;99.90;;;;;;5133411;28;20032;-69
2023/05/26 01:35:15;;;;;;;0.10;0.10;;;11.70;99.90;;;;;;5117432;27;20031;-69
2023/05/26 01:37:43;;;;;;;2.90;1.10;;;11.80;99.90;;;;;;5104444;27;20026;-69
2023/05/26 01:40:11;;;;;;;0.55;0.55;;;11.80;99.90;;;;;;5118792;27;20483;-69
2023/05/26 01:42:41;;;;;;;0.43;0.43;;;11.80;99.90;;;;;;5118960;27;20027;-69
2023/05/26 01:45:18;;;;;;;1.85;0.80;;;12.00;99.90;;;;;;5119049;27;20058;-69
2023/05/26 01:47:49;;;;;;;0.38;0.25;;;12.10;99.90;;;;;;5137394;27;20051;-69
2023/05/26 01:50:17;;;;;;;0.10;0.10;;;11.90;99.90;;;;;;5118828;27;20027;-70
2023/05/26 01:52:45;;;;;;;1.00;1.00;;;11.80;99.90;;;;;;5118520;27;20045;-69
2023/05/26 01:55:12;;;;;;;0.20;0.20;;;11.70;99.90;;;;;;5119088;27;20034;-69
2023/05/26 01:57:41;;;;;;;0.50;0.50;;;11.50;99.90;;;;;;5118794;27;20106;-69
2023/05/26 02:00:09;;;;;;;0.20;0.20;;;11.50;99.90;;;;;;5118656;27;20019;-70
2023/05/26 02:02:40;;;;;;;1.05;1.05;;;11.40;99.90;;;;;;5137183;27;20025;-70
2023/05/26 02:05:06;;;;;;;3.25;1.17;;;11.50;99.90;;;;;;5118512;27;20027;-68
2023/05/26 02:07:34;;;;;;;1.85;1.75;;;11.50;99.90;;;;;;5118440;27;20019;-70
2023/05/26 02:10:01;;;;;;;0.98;0.93;;;11.40;99.90;;;;;;5118307;27;20064;-69
2023/05/26 02:12:27;;;;;;;0.10;0.10;;;11.50;99.90;;;;;;5118422;27;20032;-69
2023/05/26 02:14:53;;;;;;;0.20;0.20;;;11.30;99.90;;;;;;5136776;27;20046;-69
2023/05/26 02:17:19;;;;;;;0.28;0.28;;;11.30;99.90;;;;;;5118415;27;20019;-69
2023/05/26 02:19:44;;;;;;;0.13;0.13;;;11.30;99.90;;;;;;5118541;27;20031;-69
2023/05/26 02:22:12;;;;;;;0.10;0.10;;;11.20;99.90;;;;;;5117886;27;20382;-69
2023/05/26 02:24:40;;;;;;;1.13;1.02;;;11.30;99.90;;;;;;5101523;27;20479;-69
2023/05/26 02:27:06;;;;;;;3.08;1.50;;;11.20;99.90;;;;;;5118022;27;20016;-69
2023/05/26 02:29:32;;;;;;;1.83;1.45;;;11.10;99.90;;;;;;5136723;27;20019;-69
2023/05/26 02:31:58;;;;;;;0.15;0.15;;;11.10;99.90;;;;;;5136352;27;20027;-72
2023/05/26 02:34:23;;;;;;;0.10;0.10;;;11.10;99.90;;;;;;5118114;27;20033;-73
2023/05/26 02:36:49;;;;;;;0.10;0.10;;;11.10;99.90;;;;;;5125940;27;20032;-70
2023/05/26 02:39:16;;;;;;;5.53;0.82;;;11.00;99.90;;;;;;5132408;27;20035;-74
2023/05/26 02:41:41;;;;;;;0.80;0.65;;;10.90;99.90;;;;;;5136045;27;20030;-72
2023/05/26 02:44:08;;;;;;;0.45;0.45;;;11.00;99.90;;;;;;5136254;27;20035;-72
2023/05/26 02:46:34;;;;;;;0.75;0.50;;;11.00;99.90;;;;;;5135167;27;20039;-73
2023/05/26 02:49:00;;;;;;;10.20;2.33;;;11.10;99.90;;;;;;5136358;27;20096;-71
2023/05/26 02:51:27;;;;;;;29.40;1.23;;;11.00;99.90;;;;;;5135638;27;20018;-72
2023/05/26 02:53:52;;;;;;;13.65;1.58;;;10.90;99.90;;;;;;5117539;27;20045;-74
2023/05/26 02:56:18;;;;;;;0.10;0.10;;;10.80;99.90;;;;;;5136008;27;20459;-72
2023/05/26 02:58:44;;;;;;;3.63;1.27;;;10.90;99.90;;;;;;5117652;27;20031;-71
2023/05/26 03:01:09;;;;;;;0.10;0.10;;;11.00;99.90;;;;;;5136089;27;20422;-71
2023/05/26 03:03:35;;;;;;;0.30;0.30;;;10.90;99.90;;;;;;5136318;27;20034;-73
2023/05/26 03:06:02;;;;;;;0.20;0.20;;;11.00;99.90;;;;;;5117479;27;20015;-73
2023/05/26 03:08:28;;;;;;;0.10;0.10;;;11.00;99.90;;;;;;5117253;27;20118;-72
2023/05/26 03:10:54;;;;;;;0.60;0.60;;;11.00;99.90;;;;;;5117350;27;20185;-73
2023/05/26 03:13:20;;;;;;;0.10;0.10;;;11.00;99.90;;;;;;5117050;27;20540;-73
2023/05/26 03:15:47;;;;;;;2.20;1.75;;;10.90;99.90;;;;;;5117502;27;20039;-71
2023/05/26 03:18:16;;;;;;;0.63;0.63;;;10.80;99.90;;;;;;5116990;27;20542;-71
2023/05/26 03:20:46;;;;;;;0.55;0.55;;;10.80;99.90;;;;;;5135391;27;20424;-71
2023/05/26 03:23:14;;;;;;;0.17;0.17;;;10.60;99.90;;;;;;5117277;27;20029;-70
2023/05/26 03:25:40;;;;;;;0.95;0.95;;;10.50;99.90;;;;;;5116950;27;20109;-71
2023/05/26 03:28:06;;;;;;;0.10;0.10;;;10.70;99.90;;;;;;5117014;27;20487;-72
2023/05/26 03:30:32;;;;;;;2.53;0.95;;;10.60;99.90;;;;;;5117142;27;20031;-73
2023/05/26 03:33:00;;;;;;;1.35;1.25;;;10.80;99.90;;;;;;5135183;27;20031;-70
2023/05/26 03:35:27;;;;;;;2.38;1.17;;;10.90;99.90;;;;;;5116642;27;20046;-70
2023/05/26 03:37:53;;;;;;;1.85;1.65;;;10.90;99.90;;;;;;5120738;27;20058;-71
2023/05/26 03:40:19;;;;;;;0.17;0.15;;;10.80;99.90;;;;;;5116720;27;20486;-69
2023/05/26 03:42:45;;;;;;;0.10;0.10;;;10.70;99.90;;;;;;5115927;27;20051;-69
2023/05/26 03:45:15;;;;;;;4.07;1.40;;;10.70;99.90;;;;;;5134732;27;20023;-69
2023/05/26 03:47:41;;;;;;;0.52;0.50;;;10.70;99.90;;;;;;5116320;27;20050;-70
2023/05/26 03:50:07;;;;;;;0.63;0.47;;;10.80;99.90;;;;;;5116331;27;20042;-69
2023/05/26 03:52:35;;;;;;;8.38;1.88;;;10.80;99.90;;;;;;5116574;27;20023;-69
2023/05/26 03:55:03;;;;;;;16.77;1.75;;;10.70;99.90;;;;;;5116093;27;20035;-70
2023/05/26 03:57:29;;;;;;;1.48;0.95;;;10.60;99.90;;;;;;5099353;27;20053;-69
2023/05/26 03:59:55;;;;;;;0.13;0.13;;;10.60;99.90;;;;;;5116127;27;20510;-69
2023/05/26 04:02:22;;;;;;;0.88;0.88;;;10.70;99.90;;;;;;5116508;27;20420;-68
2023/05/26 04:04:48;;;;;;;0.10;0.10;;;10.50;99.90;;;;;;5115533;27;20019;-69
2023/05/26 04:07:14;;;;;;;0.20;0.20;;;10.60;99.90;;;;;;5116282;27;20019;-69
2023/05/26 04:09:40;;;;;;;0.10;0.10;;;10.70;99.90;;;;;;5115894;27;20088;-69
2023/05/26 04:12:06;;;;;;;8.77;0.43;;;10.60;99.90;;;;;;5115907;27;20016;-69
2023/05/26 04:14:32;;;;;;;1.23;0.32;;;10.60;99.90;;;;;;5115926;27;20043;-69
2023/05/26 04:16:57;;;;;;;0.73;0.73;;;10.60;99.90;;;;;;5133875;27;20095;-69
2023/05/26 04:19:23;;;;;;;2.40;2.30;;;10.80;99.90;;;;;;5115979;27;20479;-69
2023/05/26 04:21:49;;;;;;;16.63;2.25;;;10.70;99.90;;;;;;5134372;27;20031;-69
2023/05/26 04:24:16;;;;;;;0.10;0.10;;;10.50;99.90;;;;;;5115843;27;20110;-69
2023/05/26 04:26:42;;;;;;;0.43;0.43;;;10.50;99.90;;;;;;5115873;27;20106;-69
2023/05/26 04:29:07;;;;;;;3.92;0.82;;;10.50;99.90;;;;;;5134133;27;20034;-69
2023/05/26 04:31:42;;;;;;;0.20;0.20;;;10.50;99.90;;;;;;5115672;27;20089;-69
2023/05/26 04:34:38;;;;;;;12.48;4.03;;;10.50;99.90;;;;;;5102750;27;20099;-69
2023/05/26 04:37:33;;;;;;;6.32;2.65;;;10.60;99.90;;;;;;5115405;27;20027;-70
2023/05/26 04:40:00;;;;;;;1.98;0.65;;;10.50;99.90;;;;;;5115597;27;20015;-69
2023/05/26 04:42:26;;;;;;;0.10;0.10;;;10.40;99.90;;;;;;5115486;27;20042;-69
2023/05/26 04:44:54;;;;;;;0.55;0.40;;;10.60;99.90;;;;;;5115681;27;20019;-69
2023/05/26 04:47:22;;;;;;;0.17;0.17;;;10.60;99.90;;;;;;5115496;27;20126;-68
2023/05/26 04:49:47;;;;;;;2.63;1.77;;;10.70;99.90;;;;;;5115185;27;20027;-69
2023/05/26 04:52:14;;;;;;;13.63;4.35;;;10.70;99.90;;;;;;5115588;27;20019;-69
2023/05/26 04:54:42;;;;;;;0.20;0.20;;;10.80;99.90;;;;;;5115285;27;20039;-70
2023/05/26 04:57:07;;;;;;;2.70;1.77;;;10.90;99.90;;;;;;5115527;27;20022;-69
2023/05/26 04:59:49;;;;;;;2.20;1.23;;;10.90;99.90;;;;;;5115207;28;20016;-69
2023/05/26 05:02:16;;;;;;;5.85;2.63;;;10.70;99.90;;;;;;5115708;27;20024;-69
2023/05/26 05:04:57;;;;;;;0.65;0.63;;;10.70;99.90;;;;;;5100268;28;20024;-70
2023/05/26 05:07:22;;;;;;;2.75;0.73;;;10.70;99.90;;;;;;5115371;28;20134;-69
2023/05/26 05:09:48;;;;;;;4.68;2.00;;;10.80;99.90;;;;;;5114563;28;20430;-69
2023/05/26 05:12:15;;;;;;;2.97;0.55;;;10.80;99.90;;;;;;5115174;28;20027;-71
2023/05/26 05:14:41;;;;;;;10.55;2.03;;;10.80;99.90;;;;;;5115208;28;20483;-69
2023/05/26 05:17:07;;;;;;;1.88;1.20;;;10.80;99.90;;;;;;5114804;28;20474;-70
2023/05/26 05:19:33;;;;;;;2.38;1.15;;;10.80;99.90;;;;;;5133744;28;20023;-73
2023/05/26 05:21:59;;;;;;;0.75;0.75;;;10.90;99.90;;;;;;5115109;28;20015;-69
2023/05/26 05:24:26;;;;;;;0.45;0.45;;;10.90;99.90;;;;;;5115193;28;20027;-71
2023/05/26 05:26:52;;;;;;;1.75;0.73;;;11.10;99.90;;;;;;5133465;28;20027;-70
2023/05/26 05:29:20;;;;;;;4.78;1.00;;;11.40;99.90;;;;;;5115173;28;20031;-69
2023/05/26 05:31:48;;;;;;;4.38;1.45;;;11.40;99.90;;;;;;5133417;28;20035;-69
2023/05/26 05:34:14;;;;;;;0.55;0.45;;;11.40;99.90;;;;;;5114992;28;20019;-70
2023/05/26 05:36:41;;;;;;;0.20;0.20;;;11.30;99.90;;;;;;5106095;28;20111;-71
2023/05/26 05:39:07;;;;;;;8.98;1.35;;;11.40;99.90;;;;;;5109953;28;20053;-71
2023/05/26 05:41:33;;;;;;;8.68;2.25;;;11.50;99.90;;;;;;5114821;28;20523;-69
2023/05/26 05:43:59;;;;;;;3.17;1.92;;;11.50;99.90;;;;;;5114629;28;20054;-75
2023/05/26 05:46:26;;;;;;;0.98;0.40;;;11.40;99.90;;;;;;5114857;28;20015;-69
2023/05/26 05:48:56;;;;;;;0.20;0.20;;;11.50;99.90;;;;;;5115086;28;20027;-71
2023/05/26 05:51:31;;;;;;;1.40;0.65;;;11.60;99.90;;;;;;5114704;28;20066;-74
2023/05/26 05:53:57;;;;;;;0.40;0.40;;;11.70;99.90;;;;;;5133269;28;20039;-69
2023/05/26 05:56:26;;;;;;;1.73;0.43;;;11.80;99.90;;;;;;5114315;28;20043;-73
2023/05/26 05:58:53;;;;;;;2.20;0.95;;;12.00;99.90;;;;;;5114773;28;20023;-71
2023/05/26 06:01:22;;;;;;;9.13;0.93;;;12.20;99.90;;;;;;5114718;28;20023;-73
2023/05/26 06:03:48;;;;;;;0.10;0.10;;;12.30;99.90;;;;;;5097954;28;20110;-69
2023/05/26 06:06:15;;;;;;;1.02;0.95;;;12.50;99.90;;;;;;5114306;28;20069;-69
2023/05/26 06:08:42;;;;;;;34.85;3.63;;;12.40;99.90;;;;;;5115012;28;20019;-72
2023/05/26 06:11:08;;;;;;;4.47;1.17;;;12.20;99.90;;;;;;5114539;28;20494;-69
2023/05/26 06:13:38;;;;;;;0.10;0.10;;;12.30;99.90;;;;;;5114333;28;20030;-70
2023/05/26 06:16:05;;;;;;;0.10;0.10;;;12.40;99.90;;;;;;5114532;28;20024;-75
2023/05/26 06:18:31;;;;;;;0.10;0.10;;;12.50;99.90;;;;;;5114472;28;20092;-74
2023/05/26 06:20:57;;;;;;;0.30;0.30;;;12.60;99.90;;;;;;5114957;27;20016;-73
2023/05/26 06:23:23;;;;;;;0.30;0.30;;;12.40;99.90;;;;;;5118305;27;20132;-72
2023/05/26 06:25:48;;;;;;;3.30;0.90;;;12.30;99.90;;;;;;5118117;27;20072;-74
2023/05/26 06:28:17;;;;;;;3.40;1.23;;;12.40;99.90;;;;;;5117812;27;20475;-69
2023/05/26 06:30:43;;;;;;;2.05;1.73;;;12.40;99.90;;;;;;5101340;27;20386;-72
2023/05/26 06:33:25;;;;;;;0.30;0.30;;;12.50;99.90;;;;;;5118023;27;20019;-73
2023/05/26 06:35:51;;;;;;;3.95;1.30;;;12.80;99.90;;;;;;5116001;27;20072;-70
2023/05/26 06:38:17;;;;;;;0.38;0.38;;;12.90;99.90;;;;;;5105640;27;20159;-74
2023/05/26 06:40:42;;;;;;;0.20;0.20;;;12.80;99.90;;;;;;5118040;27;20059;-70
2023/05/26 06:43:09;;;;;;;0.10;0.10;;;12.80;99.90;;;;;;5117690;27;20435;-69
2023/05/26 06:45:35;;;;;;;0.30;0.30;;;12.80;99.90;;;;;;5118147;27;20106;-69
2023/05/26 06:48:01;;;;;;;0.80;0.57;;;13.00;99.90;;;;;;5117696;27;20106;-69
2023/05/26 06:50:27;;;;;;;0.55;0.55;;;12.80;99.90;;;;;;5117948;27;20034;-70
2023/05/26 06:52:57;;;;;;;0.10;0.10;;;12.80;99.90;;;;;;5117339;27;20424;-69
2023/05/26 06:55:23;;;;;;;0.10;0.10;;;12.70;99.90;;;;;;5136178;27;20114;-69
2023/05/26 06:57:48;;;;;;;18.15;1.25;;;13.00;99.90;;;;;;5117164;27;20364;-69
2023/05/26 07:00:17;;;;;;;3.97;3.75;;;13.30;99.90;;;;;;5117475;27;20527;-70
2023/05/26 07:02:43;;;;;;;4.68;2.25;;;13.40;99.90;;;;;;5117646;27;20034;-70
2023/05/26 07:05:25;;;;;;;1.65;0.22;;;13.30;99.90;;;;;;5117446;27;20057;-69
2023/05/26 07:07:51;;;;;;;0.52;0.47;;;13.50;99.90;;;;;;5117466;27;20030;-69
2023/05/26 07:10:17;;;;;;;0.52;0.40;;;13.70;99.90;;;;;;5117191;27;20034;-69
2023/05/26 07:12:43;;;;;;;0.85;0.60;;;13.90;99.90;;;;;;5116806;27;20024;-69
2023/05/26 07:15:25;;;;;;;1.67;1.13;;;13.80;99.90;;;;;;5117315;27;20514;-70
2023/05/26 07:17:51;;;;;;;0.10;0.10;;;13.70;99.90;;;;;;5117195;27;20027;-69
2023/05/26 07:20:17;;;;;;;0.40;0.40;;;13.90;99.90;;;;;;5117058;27;20027;-69
2023/05/26 07:22:43;;;;;;;0.10;0.10;;;14.20;99.90;;;;;;5117002;27;20020;-69
2023/05/26 07:25:15;;;;;;;3.47;1.95;;;14.30;99.90;;;;;;5117116;27;20066;-69
2023/05/26 07:27:46;;;;;;;4.38;2.13;;;14.20;99.90;;;;;;5116725;27;20023;-70
2023/05/26 07:30:13;;;;;;;0.10;0.10;;;14.10;99.90;;;;;;5135189;27;20468;-69
2023/05/26 07:32:57;;;;;;;1.38;1.27;;;14.00;99.90;;;;;;5119632;27;20131;-69
2023/05/26 07:35:24;;;;;;;6.07;5.50;;;14.20;99.90;;;;;;5116960;27;20114;-69
2023/05/26 07:37:49;;;;;;;5.82;1.65;;;14.30;99.90;;;;;;5102188;27;20395;-69
2023/05/26 07:40:15;;;;;;;0.30;0.30;;;14.40;99.90;;;;;;5134832;27;20026;-69
2023/05/26 07:42:42;;;;;;;1.88;1.50;;;14.40;99.90;;;;;;5135020;27;20079;-70
2023/05/26 07:45:08;;;;;;;5.30;0.57;;;14.30;99.90;;;;;;5135263;27;20046;-69
2023/05/26 07:47:35;;;;;;;4.35;0.88;;;14.60;99.90;;;;;;5134797;27;20031;-70
2023/05/26 07:50:02;;;;;;;0.10;0.10;;;14.60;99.90;;;;;;5134957;27;20023;-69
2023/05/26 07:52:28;;;;;;;0.10;0.10;;;14.90;99.90;;;;;;5134847;27;20023;-70
2023/05/26 07:54:54;;;;;;;2.22;1.00;;;15.00;99.90;;;;;;5134351;27;20095;-69
2023/05/26 07:57:19;;;;;;;0.20;0.20;;;15.10;99.90;;;;;;5134858;27;20023;-71
2023/05/26 07:59:45;;;;;;;0.63;0.55;;;15.30;99.90;;;;;;5134156;27;20031;-73
2023/05/26 08:02:11;;;;;;;3.28;1.65;;;15.50;99.90;;;;;;5134848;27;20038;-71
2023/05/26 08:04:37;;;;;;;2.92;1.10;;;15.50;99.90;;;;;;5116381;27;20031;-71
2023/05/26 08:07:03;;;;;;;0.17;0.15;;;15.50;99.90;;;;;;5134695;27;20019;-71
2023/05/26 08:09:29;;;;;;;0.10;0.10;;;15.30;99.90;;;;;;5134458;27;20505;-69
2023/05/26 08:11:54;;;;;;;0.88;0.17;;;15.50;99.90;;;;;;5134860;27;20027;-70
2023/05/26 08:14:22;;;;;;;0.03;0.03;;;15.60;99.90;;;;;;5134593;27;20039;-74
2023/05/26 08:16:48;;;;;;;0.00;0.00;;;15.80;99.90;;;;;;5134516;27;20029;-69
2023/05/26 08:19:14;;;;;;;0.65;0.65;;;16.00;99.90;;;;;;5134467;27;20027;-71
2023/05/26 08:21:39;;;;;;;0.98;0.28;;;15.90;99.90;;;;;;5134276;27;20416;-69
2023/05/26 08:24:05;;;;;;;0.25;0.25;;;15.90;99.90;;;;;;5134083;27;20019;-71
2023/05/26 08:26:31;;;;;;;3.65;0.98;;;15.90;99.90;;;;;;5134304;27;20050;-73
2023/05/26 08:28:57;;;;;;;0.00;0.00;;;16.20;99.90;;;;;;5134339;27;20035;-75
2023/05/26 08:31:22;;;;;;;0.20;0.20;;;16.30;99.90;;;;;;5134202;27;20058;-70
2023/05/26 08:33:48;;;;;;;0.38;0.38;;;16.60;99.90;;;;;;5133895;27;20031;-74
2023/05/26 08:36:14;;;;;;;0.00;0.00;;;16.50;99.90;;;;;;5110769;28;20472;-75
2023/05/26 08:38:40;;;;;;;0.10;0.10;;;16.40;99.80;;;;;;5106605;27;20189;-71
2023/05/26 08:41:07;;;;;;;4.47;0.98;;;16.40;99.90;;;;;;5115282;27;20082;-74
2023/05/26 08:43:42;;;;;;;0.82;0.82;;;16.60;99.60;;;;;;5133426;27;20045;-72
2023/05/26 08:46:10;;;;;;;8.45;1.00;;;16.40;99.80;;;;;;5133805;27;20077;-72
2023/05/26 08:48:38;;;;;;;6.70;3.30;;;16.50;99.70;;;;;;5133885;27;20015;-74
2023/05/26 08:51:09;;;;;;;0.90;0.25;;;16.40;99.40;;;;;;5133805;27;20042;-73
2023/05/26 08:53:36;;;;;;;0.10;0.10;;;16.80;99.60;;;;;;5133456;27;20035;-70
2023/05/26 08:56:03;;;;;;;0.10;0.10;;;17.10;99.10;;;;;;5133970;27;20030;-69
2023/05/26 08:58:30;;;;;;;0.43;0.40;;;17.30;98.40;;;;;;5134203;27;20023;-70
2023/05/26 09:00:57;;;;;;;0.00;0.00;;;17.60;97.00;;;;;;5133828;27;20139;-71
2023/05/26 09:03:23;;;;;;;0.98;0.50;;;17.70;96.00;;;;;;5133660;27;20027;-71
2023/05/26 09:05:48;;;;;;;1.02;0.20;;;17.40;95.70;;;;;;5133487;27;20019;-71
2023/05/26 09:08:15;;;;;;;0.55;0.55;;;17.50;96.10;;;;;;5133275;28;20470;-70
2023/05/26 09:10:41;;;;;;;0.15;0.15;;;17.40;95.80;;;;;;5133826;28;20019;-70
2023/05/26 09:13:13;;;;;;;0.20;0.20;;;17.40;96.50;;;;;;5133363;28;20468;-72
2023/05/26 09:15:40;;;;;;;0.20;0.20;;;17.60;95.30;;;;;;5133736;28;20530;-74
2023/05/26 09:18:08;;;;;;;0.10;0.10;;;18.00;95.50;;;;;;5133751;28;20110;-74
2023/05/26 09:20:42;;;;;;;0.20;0.20;;;18.30;93.90;;;;;;5133724;28;20026;-73
2023/05/26 09:23:09;;;;;;;2.72;2.42;;;18.30;94.20;;;;;;5133420;28;20027;-74
2023/05/26 09:25:36;;;;;;;4.60;1.48;;;18.20;94.90;;;;;;5115021;28;20043;-73
2023/05/26 09:28:07;;;;;;;7.97;1.10;;;18.20;94.40;;;;;;5133582;28;20045;-74
2023/05/26 09:30:39;;;;;;;0.20;0.20;;;18.20;94.90;;;;;;5133563;28;20023;-73
2023/05/26 09:33:06;;;;;;;1.77;1.48;;;18.60;95.20;;;;;;5133453;28;20070;-72
2023/05/26 09:35:40;;;;;;;0.75;0.75;;;18.70;94.50;;;;;;5133233;28;20027;-72
2023/05/26 09:38:08;;;;;;;1.10;1.05;;;18.90;93.70;;;;;;5105635;28;20027;-70
2023/05/26 09:40:35;;;;;;;9.98;0.68;;;19.00;92.90;;;;;;5133343;28;20042;-70
2023/05/26 09:43:01;;;;;;;1.10;0.55;;;19.30;92.40;;;;;;5133222;28;20067;-69
2023/05/26 09:45:37;;;;;;;0.00;0.00;;;19.20;92.90;;;;;;5133525;28;20247;-70
2023/05/26 09:48:09;;;;;;;0.00;0.00;;;19.10;93.30;;;;;;5133413;28;20031;-70
2023/05/26 09:50:37;;;;;;;2.40;0.93;;;19.50;93.70;;;;;;5114338;28;20038;-69
2023/05/26 09:53:05;;;;;;;1.77;0.93;;;19.60;93.20;;;;;;5133114;28;20068;-69
2023/05/26 09:55:31;;;;;;;2.20;1.38;;;19.40;93.40;;;;;;5134334;27;20030;-70
2023/05/26 09:58:05;;;;;;;2.92;1.33;;;19.40;93.90;;;;;;5136935;27;20168;-69
2023/05/26 10:00:34;;;;;;;0.00;0.00;;;19.30;93.70;;;;;;5118976;27;20065;-70
2023/05/26 10:03:03;;;;;;;0.82;0.55;;;19.40;92.20;;;;;;5118686;27;20035;-69
2023/05/26 10:05:31;;;;;;;1.13;0.50;;;19.40;92.40;;;;;;5136774;27;20091;-69
2023/05/26 10:07:58;;;;;;;0.10;0.10;;;19.70;92.80;;;;;;5136640;27;20033;-69
2023/05/26 10:10:25;;;;;;;5.90;1.73;;;19.50;92.20;;;;;;5137219;27;20106;-70
2023/05/26 10:12:51;;;;;;;0.00;0.00;;;19.70;91.80;;;;;;5136863;27;20046;-70
2023/05/26 10:15:17;;;;;;;3.55;1.15;;;19.50;92.10;;;;;;5118253;27;20582;-70
2023/05/26 10:17:43;;;;;;;0.80;0.80;;;19.60;92.40;;;;;;5136893;27;20098;-69
2023/05/26 10:20:09;;;;;;;0.32;0.30;;;20.10;92.20;;;;;;5117985;27;20027;-70
2023/05/26 10:22:56;;;;;;;0.00;0.00;;;19.90;91.10;;;;;;5136885;27;20019;-70
2023/05/26 10:25:31;;;;;;;3.00;0.63;;;19.90;92.20;;;;;;5136575;27;20096;-70
2023/05/26 10:28:13;;;;;;;1.27;0.82;;;20.00;91.80;;;;;;5136670;27;20039;-69
2023/05/26 10:30:42;;;;;;;;;;;19.90;91.50;;;;;;5136919;27;20027;-70
2023/05/26 10:33:11;;;;;;;0.10;0.10;;;20.10;91.50;;;;;;5136395;27;19911;-70
2023/05/26 10:35:37;;;;;;;7.47;0.80;;;20.70;91.40;;;;;;5136005;27;20031;-69
2023/05/26 10:38:03;;;;;;;0.00;0.00;;;20.90;91.00;;;;;;5083574;28;20479;-69
2023/05/26 10:40:50;;;;;;;0.43;0.10;;;21.00;91.10;;;;;;5128102;27;20052;-70
2023/05/26 10:43:26;;;;;;;0.93;0.55;;;21.20;90.50;;;;;;5109526;27;20066;-70
2023/05/26 10:45:55;;;;;;;0.77;0.77;;;21.40;90.10;;;;;;5136117;27;20030;-69
2023/05/26 10:48:25;;;;;;;0.10;0.10;;;21.50;90.10;;;;;;5136120;27;20027;-69
2023/05/26 10:50:54;;;;;;;7.75;0.70;;;21.60;90.60;;;;;;5117868;27;20023;-69
2023/05/26 10:53:23;;;;;;;5.45;1.58;;;21.30;89.90;;;;;;5135853;27;20031;-70
2023/05/26 10:55:58;;;;;;;1.30;1.08;;;21.50;89.80;;;;;;5135783;27;20039;-70
2023/05/26 10:58:34;;;;;;;0.30;0.30;;;21.30;88.80;;;;;;5135685;27;20099;-69
2023/05/26 11:01:02;;;;;;;0.40;0.40;;;21.20;88.70;;;;;;5136074;27;20096;-70
2023/05/26 11:03:37;;;;;;;12.07;0.32;;;21.30;90.20;;;;;;5117061;27;20015;-70
2023/05/26 11:06:04;;;;;;;0.85;0.52;;;21.50;89.30;;;;;;5135961;27;20041;-70
2023/05/26 11:08:40;;;;;;;3.97;0.80;;;21.50;88.60;;;;;;5134677;27;20031;-69
2023/05/26 11:11:11;;;;;;;2.75;1.95;;;21.60;88.90;;;;;;5135831;27;20038;-70
2023/05/26 11:13:50;;;;;;;2.65;1.20;;;21.90;87.10;;;;;;5135478;27;20027;-69
2023/05/26 11:16:24;;;;;;;0.85;0.22;;;22.20;85.40;;;;;;5135810;27;20035;-69
2023/05/26 11:18:53;;;;;;;0.52;0.52;;;22.10;85.30;;;;;;5134952;27;20027;-69
2023/05/26 11:21:26;;;;;;;0.05;0.03;;;22.20;85.30;;;;;;5135625;27;20072;-69
2023/05/26 11:23:56;;;;;;;1.30;1.10;;;22.60;85.10;;;;;;5116825;27;20023;-69
2023/05/26 11:26:23;;;;;;;2.22;0.52;;;22.60;85.60;;;;;;5135571;27;20023;-70
2023/05/26 11:28:50;;;;;;;0.00;0.00;;;22.40;86.20;;;;;;5135272;27;20059;-69
2023/05/26 11:31:18;;;;;;;0.93;0.75;;;22.70;87.00;;;;;;5135295;27;20035;-69
2023/05/26 11:33:45;;;;;;;0.08;0.08;;;22.60;84.30;;;;;;5134571;27;20078;-70
2023/05/26 11:36:12;;;;;;;5.13;1.17;;;23.20;85.00;;;;;;5130432;27;20036;-69
2023/05/26 11:38:40;;;;;;;1.27;0.43;;;23.30;83.60;;;;;;5125718;27;20023;-69
2023/05/26 11:41:10;;;;;;;0.03;0.03;;;23.00;82.90;;;;;;5134763;27;20132;-69
2023/05/26 11:43:37;;;;;;;0.73;0.65;;;23.40;82.80;;;;;;5134968;27;20039;-69
2023/05/26 11:46:08;;;;;;;1.08;0.60;;;23.20;82.60;;;;;;5135027;27;20025;-70
2023/05/26 11:48:36;;;;;;;1.53;0.43;;;23.50;82.10;;;;;;5134589;27;20046;-70
2023/05/26 11:51:22;;;;;;;0.75;0.75;;;23.60;81.30;;;;;;5134847;27;20027;-72
2023/05/26 11:53:53;;;;;;;4.95;1.05;;;23.50;81.60;;;;;;5134537;27;20046;-70
2023/05/26 11:56:20;;;;;;;1.55;1.45;;;23.20;81.30;;;;;;5134554;27;20015;-74
2023/05/26 11:58:54;;;;;;;0.10;0.10;;;23.50;79.30;;;;;;5134879;27;20031;-70
2023/05/26 12:01:21;;;;;;;6.75;1.33;;;23.00;81.20;;;;;;5134373;27;20544;-70
2023/05/26 12:03:50;;;;;;;1.55;1.08;;;22.60;80.00;;;;;;5134753;27;20019;-69
2023/05/26 12:06:21;;;;;;;0.77;0.28;;;23.00;80.60;;;;;;5134510;27;20031;-69
2023/05/26 12:08:49;;;;;;;0.10;0.10;;;23.40;82.20;;;;;;5134464;27;20486;-70
2023/05/26 12:11:16;;;;;;;1.25;0.43;;;23.70;81.90;;;;;;5134494;27;20033;-69
2023/05/26 12:13:42;;;;;;;0.10;0.10;;;23.80;78.10;;;;;;5134081;27;20042;-74
2023/05/26 12:16:22;;;;;;;0.10;0.10;;;23.60;79.60;;;;;;5134177;27;20023;-70
2023/05/26 12:18:51;;;;;;;0.43;0.30;;;23.80;80.20;;;;;;5134016;27;20035;-70
2023/05/26 12:21:17;;;;;;;0.43;0.43;;;23.60;77.90;;;;;;5134304;27;20031;-70
2023/05/26 12:23:45;;;;;;;0.55;0.47;;;23.90;78.70;;;;;;5134180;27;20050;-73
2023/05/26 12:26:22;;;;;;;2.03;0.65;;;24.10;77.50;;;;;;5134027;27;20056;-72
2023/05/26 12:29:14;;;;;;;1.13;1.02;;;24.10;77.60;;;;;;5133926;27;20023;-69
2023/05/26 12:31:41;;;;;;;0.25;0.25;;;23.70;77.00;;;;;;5133936;27;20035;-76
2023/05/26 12:34:08;;;;;;;0.00;0.00;;;24.30;75.90;;;;;;5133659;27;20046;-74
2023/05/26 12:36:34;;;;;;;0.05;0.05;;;24.60;73.90;;;;;;5126023;27;20424;-75
2023/05/26 12:39:01;;;;;;;0.20;0.20;;;24.60;74.30;;;;;;5127796;27;20027;-72
2023/05/26 12:41:26;;;;;;;4.95;0.98;;;25.00;74.70;;;;;;5133733;27;20035;-72
2023/05/26 12:43:52;;;;;;;0.22;0.20;;;25.40;73.30;;;;;;5133997;27;20034;-72
2023/05/26 12:46:18;;;;;;;0.20;0.20;;;25.10;74.50;;;;;;5133445;27;20019;-70
2023/05/26 12:48:44;;;;;;;0.17;0.17;;;25.00;75.30;;;;;;5133942;27;20102;-73
2023/05/26 12:51:09;;;;;;;0.28;0.28;;;25.00;74.90;;;;;;5133625;27;20160;-71